createdAt,value
2017-05-16T00:00:17.725Z,1030.7
2017-05-16T00:01:20.000Z,1030.8
2017-05-16T00:02:23.100Z,1030.7
2017-05-16T00:03:25.452Z,1030.8
2017-05-16T00:04:28.553Z,1030.7
2017-05-16T00:05:30.898Z,1030.7
2017-05-16T00:06:33.749Z,1030.7
2017-05-16T00:07:36.607Z,1030.7
2017-05-16T00:08:39.324Z,1030.7
2017-05-16T00:09:42.484Z,1030.8
2017-05-16T00:11:47.239Z,1030.8
2017-05-16T00:12:50.085Z,1030.7
2017-05-16T00:13:52.982Z,1030.7
2017-05-16T00:14:56.132Z,1030.8
2017-05-16T00:15:58.482Z,1030.7
2017-05-16T00:17:00.829Z,1030.7
2017-05-16T00:18:03.690Z,1030.7
2017-05-16T00:19:06.535Z,1030.7
2017-05-16T00:20:09.554Z,1030.7
2017-05-16T00:21:11.904Z,1030.7
2017-05-16T00:22:14.755Z,1030.7
2017-05-16T00:23:17.604Z,1030.7
2017-05-16T00:24:20.317Z,1030.7
2017-05-16T00:25:23.348Z,1030.7
2017-05-16T00:26:25.694Z,1030.7
2017-05-16T00:27:28.035Z,1030.7
2017-05-16T00:28:30.879Z,1030.7
2017-05-16T00:29:33.735Z,1030.7
2017-05-16T00:30:36.938Z,1030.7
2017-05-16T00:31:39.334Z,1030.7
2017-05-16T00:32:41.682Z,1030.7
2017-05-16T00:33:44.530Z,1030.7
2017-05-16T00:35:50.086Z,1030.6
2017-05-16T00:36:52.935Z,1030.7
2017-05-16T00:37:55.286Z,1030.7
2017-05-16T00:38:58.146Z,1030.7
2017-05-16T00:40:00.992Z,1030.7
2017-05-16T00:41:03.645Z,1030.7
2017-05-16T00:42:06.494Z,1030.7
2017-05-16T00:43:09.207Z,1030.7
2017-05-16T00:44:11.937Z,1030.7
2017-05-16T00:45:14.285Z,1030.7
2017-05-16T00:46:17.434Z,1030.7
2017-05-16T00:47:19.780Z,1030.7
2017-05-16T00:48:22.493Z,1030.7
2017-05-16T00:49:25.347Z,1030.6
2017-05-16T00:50:28.196Z,1030.6
2017-05-16T00:51:30.842Z,1030.6
2017-05-16T00:52:33.691Z,1030.6
2017-05-16T00:53:36.060Z,1030.6
2017-05-16T00:54:38.905Z,1030.6
2017-05-16T00:55:41.752Z,1030.6
2017-05-16T00:56:44.907Z,1030.6
2017-05-16T00:57:47.254Z,1030.5
2017-05-16T00:58:49.601Z,1030.6
2017-05-16T00:59:52.463Z,1030.6
2017-05-16T01:00:55.310Z,1030.6
2017-05-16T01:01:58.461Z,1030.6
2017-05-16T01:03:00.804Z,1030.6
2017-05-16T01:05:06.061Z,1030.6
2017-05-16T01:06:08.906Z,1030.6
2017-05-16T01:07:11.512Z,1030.6
2017-05-16T01:08:14.376Z,1030.5
2017-05-16T01:09:16.718Z,1030.6
2017-05-16T01:10:19.574Z,1030.5
2017-05-16T01:11:22.422Z,1030.6
2017-05-16T01:12:25.533Z,1030.6
2017-05-16T01:13:27.739Z,1030.6
2017-05-16T01:14:30.596Z,1030.6
2017-05-16T01:15:33.014Z,1030.5
2017-05-16T01:16:35.869Z,1030.5
2017-05-16T01:17:39.021Z,1030.6
2017-05-16T01:18:41.366Z,1030.5
2017-05-16T01:19:44.088Z,1030.5
2017-05-16T01:20:46.941Z,1030.5
2017-05-16T01:21:49.295Z,1030.5
2017-05-16T01:22:52.394Z,1030.5
2017-05-16T01:23:54.753Z,1030.5
2017-05-16T01:24:57.602Z,1030.5
2017-05-16T01:26:00.323Z,1030.5
2017-05-16T01:27:03.177Z,1030.5
2017-05-16T01:28:05.810Z,1030.6
2017-05-16T01:29:08.655Z,1030.5
2017-05-16T01:30:11.008Z,1030.5
2017-05-16T01:31:13.726Z,1030.5
2017-05-16T01:32:16.575Z,1030.5
2017-05-16T01:33:19.780Z,1030.5
2017-05-16T01:34:22.181Z,1030.5
2017-05-16T01:35:24.524Z,1030.5
2017-05-16T01:36:27.382Z,1030.5
2017-05-16T01:37:30.235Z,1030.4
2017-05-16T01:38:33.338Z,1030.5
2017-05-16T01:39:35.418Z,1030.5
2017-05-16T01:40:38.266Z,1030.5
2017-05-16T01:41:41.113Z,1030.5
2017-05-16T01:42:43.465Z,1030.5
2017-05-16T01:43:46.565Z,1030.5
2017-05-16T01:44:48.918Z,1030.5
2017-05-16T01:45:51.767Z,1030.5
2017-05-16T01:46:54.612Z,1030.4
2017-05-16T01:47:57.466Z,1030.5
2017-05-16T01:49:00.072Z,1030.5
2017-05-16T01:50:02.416Z,1030.4
2017-05-16T01:51:05.128Z,1030.5
2017-05-16T01:52:07.978Z,1030.5
2017-05-16T01:53:10.549Z,1030.5
2017-05-16T01:54:13.649Z,1030.5
2017-05-16T01:55:16.004Z,1030.6
2017-05-16T01:56:18.906Z,1030.5
2017-05-16T01:57:21.682Z,1030.5
2017-05-16T01:58:24.395Z,1030.5
2017-05-16T01:59:27.415Z,1030.5
2017-05-16T02:00:29.764Z,1030.6
2017-05-16T02:01:32.614Z,1030.5
2017-05-16T02:02:35.016Z,1030.6
2017-05-16T02:03:37.862Z,1030.5
2017-05-16T02:04:40.970Z,1030.6
2017-05-16T02:05:43.182Z,1030.5
2017-05-16T02:06:45.899Z,1030.5
2017-05-16T02:07:48.753Z,1030.5
2017-05-16T02:08:51.134Z,1030.5
2017-05-16T02:09:54.235Z,1030.5
2017-05-16T02:11:59.237Z,1030.5
2017-05-16T02:13:02.086Z,1030.5
2017-05-16T02:14:04.932Z,1030.5
2017-05-16T02:15:08.036Z,1030.5
2017-05-16T02:16:10.243Z,1030.5
2017-05-16T02:18:15.500Z,1030.5
2017-05-16T02:19:18.402Z,1030.5
2017-05-16T02:20:21.061Z,1030.5
2017-05-16T02:21:23.779Z,1030.5
2017-05-16T02:22:26.491Z,1030.5
2017-05-16T02:23:29.349Z,1030.5
2017-05-16T02:24:31.694Z,1030.5
2017-05-16T02:25:34.797Z,1030.5
2017-05-16T02:26:37.201Z,1030.5
2017-05-16T02:28:42.455Z,1030.5
2017-05-16T02:29:45.173Z,1030.5
2017-05-16T02:30:48.271Z,1030.5
2017-05-16T02:31:50.614Z,1030.5
2017-05-16T02:32:53.460Z,1030.5
2017-05-16T02:33:56.377Z,1030.5
2017-05-16T02:34:58.724Z,1030.5
2017-05-16T02:36:01.875Z,1030.5
2017-05-16T02:37:04.221Z,1030.5
2017-05-16T02:38:06.938Z,1030.5
2017-05-16T02:39:09.783Z,1030.5
2017-05-16T02:40:12.125Z,1030.5
2017-05-16T02:41:15.090Z,1030.4
2017-05-16T02:42:17.937Z,1030.4
2017-05-16T02:43:20.282Z,1030.5
2017-05-16T02:44:23.136Z,1030.4
2017-05-16T02:45:25.982Z,1030.5
2017-05-16T02:46:28.626Z,1030.4
2017-05-16T02:47:30.969Z,1030.4
2017-05-16T02:49:36.727Z,1030.4
2017-05-16T02:50:39.073Z,1030.4
2017-05-16T02:51:42.174Z,1030.4
2017-05-16T02:52:44.517Z,1030.4
2017-05-16T02:53:47.361Z,1030.4
2017-05-16T02:54:50.204Z,1030.4
2017-05-16T02:55:52.551Z,1030.3
2017-05-16T02:56:55.649Z,1030.3
2017-05-16T02:57:57.989Z,1030.3
2017-05-16T02:59:00.831Z,1030.3
2017-05-16T03:00:03.681Z,1030.3
2017-05-16T03:01:06.026Z,1030.3
2017-05-16T03:02:09.119Z,1030.3
2017-05-16T03:03:11.466Z,1030.3
2017-05-16T03:04:14.308Z,1030.3
2017-05-16T03:05:17.154Z,1030.3
2017-05-16T03:06:19.866Z,1030.3
2017-05-16T03:07:22.829Z,1030.4
2017-05-16T03:08:25.179Z,1030.4
2017-05-16T03:09:27.524Z,1030.4
2017-05-16T03:10:30.236Z,1030.3
2017-05-16T03:11:33.082Z,1030.4
2017-05-16T03:12:35.910Z,1030.3
2017-05-16T03:13:38.748Z,1030.3
2017-05-16T03:14:41.102Z,1030.4
2017-05-16T03:15:43.827Z,1030.4
2017-05-16T03:16:46.537Z,1030.4
2017-05-16T03:17:49.732Z,1030.3
2017-05-16T03:18:52.078Z,1030.4
2017-05-16T03:20:57.326Z,1030.3
2017-05-16T03:22:00.172Z,1030.3
2017-05-16T03:23:02.873Z,1030.4
2017-05-16T03:24:05.213Z,1030.4
2017-05-16T03:25:08.059Z,1030.4
2017-05-16T03:26:10.766Z,1030.4
2017-05-16T03:27:13.521Z,1030.4
2017-05-16T03:28:16.668Z,1030.4
2017-05-16T03:29:19.011Z,1030.4
2017-05-16T03:30:21.726Z,1030.4
2017-05-16T03:31:24.069Z,1030.5
2017-05-16T03:32:26.919Z,1030.4
2017-05-16T03:33:30.069Z,1030.4
2017-05-16T03:34:32.463Z,1030.4
2017-05-16T03:35:34.862Z,1030.4
2017-05-16T03:36:37.708Z,1030.5
2017-05-16T03:37:40.556Z,1030.5
2017-05-16T03:38:43.151Z,1030.6
2017-05-16T03:39:45.866Z,1030.5
2017-05-16T03:40:48.590Z,1030.5
2017-05-16T03:41:50.947Z,1030.5
2017-05-16T03:42:53.793Z,1030.5
2017-05-16T03:43:56.892Z,1030.5
2017-05-16T03:44:59.234Z,1030.5
2017-05-16T03:46:02.020Z,1030.5
2017-05-16T03:47:04.864Z,1030.5
2017-05-16T03:48:07.204Z,1030.5
2017-05-16T03:49:10.166Z,1030.5
2017-05-16T03:50:12.507Z,1030.5
2017-05-16T03:51:15.357Z,1030.5
2017-05-16T03:52:18.196Z,1030.5
2017-05-16T03:53:21.043Z,1030.5
2017-05-16T03:54:23.691Z,1030.5
2017-05-16T03:55:26.088Z,1030.5
2017-05-16T03:56:28.801Z,1030.5
2017-05-16T03:57:31.647Z,1030.5
2017-05-16T03:58:34.489Z,1030.6
2017-05-16T03:59:37.137Z,1030.6
2017-05-16T04:00:39.478Z,1030.6
2017-05-16T04:02:45.241Z,1030.5
2017-05-16T04:03:47.641Z,1030.5
2017-05-16T04:04:50.791Z,1030.5
2017-05-16T04:05:53.134Z,1030.5
2017-05-16T04:06:55.978Z,1030.5
2017-05-16T04:07:58.374Z,1030.5
2017-05-16T04:09:01.224Z,1030.5
2017-05-16T04:10:03.877Z,1030.5
2017-05-16T04:11:06.720Z,1030.5
2017-05-16T04:12:09.058Z,1030.5
2017-05-16T04:13:11.770Z,1030.5
2017-05-16T04:14:14.861Z,1030.5
2017-05-16T04:15:17.502Z,1030.5
2017-05-16T04:16:19.839Z,1030.5
2017-05-16T04:17:22.737Z,1030.5
2017-05-16T04:18:25.598Z,1030.5
2017-05-16T04:19:27.936Z,1030.5
2017-05-16T04:20:31.144Z,1030.5
2017-05-16T04:21:33.719Z,1030.5
2017-05-16T04:22:36.055Z,1030.5
2017-05-16T04:23:38.901Z,1030.5
2017-05-16T04:24:41.746Z,1030.5
2017-05-16T04:25:44.757Z,1030.5
2017-05-16T04:26:47.099Z,1030.5
2017-05-16T04:27:49.450Z,1030.5
2017-05-16T04:28:52.420Z,1030.5
2017-05-16T04:29:55.278Z,1030.5
2017-05-16T04:30:57.930Z,1030.6
2017-05-16T04:32:00.272Z,1030.5
2017-05-16T04:33:03.122Z,1030.5
2017-05-16T04:34:05.967Z,1030.6
2017-05-16T04:35:08.309Z,1030.5
2017-05-16T04:36:11.321Z,1030.6
2017-05-16T04:37:14.165Z,1030.6
2017-05-16T04:38:16.513Z,1030.6
2017-05-16T04:39:19.356Z,1030.6
2017-05-16T04:40:22.061Z,1030.6
2017-05-16T04:41:25.207Z,1030.6
2017-05-16T04:42:27.548Z,1030.6
2017-05-16T04:43:30.394Z,1030.6
2017-05-16T04:44:32.792Z,1030.6
2017-05-16T04:45:35.501Z,1030.6
2017-05-16T04:46:38.651Z,1030.6
2017-05-16T04:47:41.092Z,1030.6
2017-05-16T04:48:43.799Z,1030.6
2017-05-16T04:49:46.146Z,1030.6
2017-05-16T04:50:49.271Z,1030.5
2017-05-16T04:51:51.921Z,1030.5
2017-05-16T04:52:54.275Z,1030.5
2017-05-16T04:53:57.124Z,1030.5
2017-05-16T04:54:59.965Z,1030.5
2017-05-16T04:56:02.375Z,1030.5
2017-05-16T04:57:05.597Z,1030.6
2017-05-16T04:58:07.938Z,1030.6
2017-05-16T04:59:10.655Z,1030.6
2017-05-16T05:00:13.500Z,1030.6
2017-05-16T05:01:15.907Z,1030.5
2017-05-16T05:02:19.284Z,1030.6
2017-05-16T05:03:21.627Z,1030.6
2017-05-16T05:04:24.477Z,1030.6
2017-05-16T05:05:26.880Z,1030.6
2017-05-16T05:06:29.726Z,1030.6
2017-05-16T05:07:32.863Z,1030.6
2017-05-16T05:08:34.938Z,1030.6
2017-05-16T05:10:40.704Z,1030.6
2017-05-16T05:11:43.047Z,1030.6
2017-05-16T05:12:46.194Z,1030.6
2017-05-16T05:13:48.537Z,1030.6
2017-05-16T05:15:54.346Z,1030.6
2017-05-16T05:16:56.689Z,1030.6
2017-05-16T05:17:59.969Z,1030.6
2017-05-16T05:19:02.313Z,1030.6
2017-05-16T05:20:05.161Z,1030.6
2017-05-16T05:21:07.509Z,1030.6
2017-05-16T05:22:10.358Z,1030.7
2017-05-16T05:23:13.434Z,1030.6
2017-05-16T05:24:16.147Z,1030.7
2017-05-16T05:25:18.491Z,1030.7
2017-05-16T05:26:21.347Z,1030.7
2017-05-16T05:27:24.186Z,1030.7
2017-05-16T05:28:27.284Z,1030.7
2017-05-16T05:29:29.540Z,1030.7
2017-05-16T05:30:32.385Z,1030.7
2017-05-16T05:31:35.229Z,1030.7
2017-05-16T05:32:37.573Z,1030.8
2017-05-16T05:33:40.669Z,1030.7
2017-05-16T05:34:43.381Z,1030.7
2017-05-16T05:35:46.233Z,1030.7
2017-05-16T05:36:48.572Z,1030.7
2017-05-16T05:37:51.419Z,1030.7
2017-05-16T05:38:54.519Z,1030.7
2017-05-16T05:39:56.859Z,1030.7
2017-05-16T05:40:59.700Z,1030.7
2017-05-16T05:42:02.601Z,1030.7
2017-05-16T05:43:05.356Z,1030.7
2017-05-16T05:44:08.573Z,1030.7
2017-05-16T05:46:13.828Z,1030.7
2017-05-16T05:47:16.673Z,1030.7
2017-05-16T05:48:19.446Z,1030.7
2017-05-16T05:49:22.409Z,1030.7
2017-05-16T05:50:24.768Z,1030.7
2017-05-16T05:51:27.610Z,1030.7
2017-05-16T05:52:30.459Z,1030.7
2017-05-16T05:53:33.302Z,1030.7
2017-05-16T05:54:36.458Z,1030.7
2017-05-16T05:55:39.305Z,1030.7
2017-05-16T05:56:42.147Z,1030.7
2017-05-16T05:57:44.994Z,1030.7
2017-05-16T05:58:47.840Z,1030.7
2017-05-16T05:59:50.987Z,1030.7
2017-05-16T06:00:53.382Z,1030.7
2017-05-16T06:01:56.235Z,1030.7
2017-05-16T06:02:59.081Z,1030.7
2017-05-16T06:04:01.931Z,1030.7
2017-05-16T06:05:05.074Z,1030.7
2017-05-16T06:06:07.786Z,1030.7
2017-05-16T06:07:10.436Z,1030.7
2017-05-16T06:08:13.285Z,1030.7
2017-05-16T06:09:16.499Z,1030.7
2017-05-16T06:10:19.170Z,1030.8
2017-05-16T06:11:21.883Z,1030.8
2017-05-16T06:12:24.793Z,1030.7
2017-05-16T06:13:27.634Z,1030.8
2017-05-16T06:14:30.524Z,1030.8
2017-05-16T06:15:33.622Z,1030.8
2017-05-16T06:16:36.328Z,1030.8
2017-05-16T06:17:39.047Z,1030.8
2017-05-16T06:18:41.954Z,1030.8
2017-05-16T06:19:44.808Z,1030.8
2017-05-16T06:20:48.465Z,1030.8
2017-05-16T06:21:50.867Z,1030.9
2017-05-16T06:22:53.624Z,1030.8
2017-05-16T06:23:56.474Z,1030.9
2017-05-16T06:24:59.319Z,1030.9
2017-05-16T06:26:02.472Z,1030.9
2017-05-16T06:27:05.320Z,1030.9
2017-05-16T06:28:08.169Z,1030.9
2017-05-16T06:29:10.879Z,1030.9
2017-05-16T06:30:14.090Z,1030.9
2017-05-16T06:31:17.184Z,1030.9
2017-05-16T06:32:20.030Z,1030.9
2017-05-16T06:33:22.934Z,1030.9
2017-05-16T06:34:25.785Z,1030.9
2017-05-16T06:35:28.631Z,1031
2017-05-16T06:36:31.779Z,1031
2017-05-16T06:37:34.623Z,1031
2017-05-16T06:38:37.333Z,1031
2017-05-16T06:39:40.182Z,1031
2017-05-16T06:40:43.033Z,1031.1
2017-05-16T06:41:46.688Z,1031
2017-05-16T06:42:49.033Z,1031
2017-05-16T06:43:51.883Z,1031
2017-05-16T06:44:55.232Z,1031
2017-05-16T06:45:58.084Z,1031
2017-05-16T06:47:01.095Z,1031
2017-05-16T06:48:03.943Z,1030.9
2017-05-16T06:49:06.542Z,1031
2017-05-16T06:50:09.904Z,1031
2017-05-16T06:51:12.751Z,1031
2017-05-16T06:52:15.762Z,1031
2017-05-16T06:53:18.531Z,1031
2017-05-16T06:54:21.381Z,1031
2017-05-16T06:55:24.285Z,1031
2017-05-16T06:56:27.133Z,1031
2017-05-16T06:57:30.328Z,1031
2017-05-16T06:58:33.036Z,1031
2017-05-16T06:59:36.252Z,1031.1
2017-05-16T07:00:39.096Z,1031
2017-05-16T07:01:41.809Z,1031
2017-05-16T07:02:45.374Z,1031
2017-05-16T07:03:47.722Z,1031
2017-05-16T07:04:51.074Z,1031
2017-05-16T07:05:53.923Z,1031
2017-05-16T07:06:56.769Z,1031
2017-05-16T07:07:59.865Z,1031
2017-05-16T07:09:02.579Z,1031
2017-05-16T07:10:05.425Z,1031
2017-05-16T07:11:08.568Z,1031
2017-05-16T07:12:11.279Z,1031
2017-05-16T07:13:14.976Z,1031
2017-05-16T07:15:20.223Z,1031
2017-05-16T07:16:23.576Z,1031
2017-05-16T07:17:26.285Z,1031
2017-05-16T07:18:29.478Z,1031
2017-05-16T07:19:32.319Z,1031
2017-05-16T07:20:35.163Z,1031
2017-05-16T07:21:38.007Z,1031
2017-05-16T07:22:41.357Z,1031
2017-05-16T07:23:44.513Z,1031
2017-05-16T07:24:46.861Z,1031
2017-05-16T07:25:50.259Z,1031
2017-05-16T07:26:53.101Z,1031
2017-05-16T07:27:55.946Z,1031
2017-05-16T07:28:59.094Z,1031
2017-05-16T07:30:01.952Z,1030.9
2017-05-16T07:32:08.083Z,1031
2017-05-16T07:33:11.040Z,1030.9
2017-05-16T07:34:14.138Z,1030.9
2017-05-16T07:35:16.853Z,1030.9
2017-05-16T07:36:19.567Z,1030.9
2017-05-16T07:37:22.776Z,1030.9
2017-05-16T07:38:26.005Z,1030.9
2017-05-16T07:39:29.152Z,1030.9
2017-05-16T07:40:31.503Z,1030.9
2017-05-16T07:41:34.854Z,1030.9
2017-05-16T07:42:37.938Z,1030.9
2017-05-16T07:43:40.794Z,1030.9
2017-05-16T07:44:43.955Z,1030.9
2017-05-16T07:46:49.708Z,1030.8
2017-05-16T07:47:52.549Z,1030.8
2017-05-16T07:48:55.395Z,1030.8
2017-05-16T07:49:58.996Z,1030.8
2017-05-16T07:51:01.843Z,1030.9
2017-05-16T07:52:04.687Z,1030.8
2017-05-16T07:53:07.533Z,1030.8
2017-05-16T07:54:10.748Z,1030.8
2017-05-16T07:55:13.717Z,1030.8
2017-05-16T07:56:16.422Z,1030.8
2017-05-16T07:57:19.770Z,1030.8
2017-05-16T07:58:22.613Z,1030.8
2017-05-16T07:59:25.458Z,1030.8
2017-05-16T08:00:29.059Z,1030.8
2017-05-16T08:01:31.401Z,1030.8
2017-05-16T08:02:34.754Z,1030.8
2017-05-16T08:03:37.600Z,1030.8
2017-05-16T08:04:40.449Z,1030.7
2017-05-16T08:05:43.914Z,1030.7
2017-05-16T08:06:46.763Z,1030.7
2017-05-16T08:08:52.389Z,1030.7
2017-05-16T08:09:55.745Z,1030.7
2017-05-16T08:10:58.847Z,1030.7
2017-05-16T08:12:01.685Z,1030.7
2017-05-16T08:13:04.528Z,1030.7
2017-05-16T08:14:07.881Z,1030.7
2017-05-16T08:15:10.727Z,1030.7
2017-05-16T08:16:13.871Z,1030.7
2017-05-16T08:17:16.713Z,1030.8
2017-05-16T08:18:19.938Z,1030.7
2017-05-16T08:19:22.783Z,1030.7
2017-05-16T08:20:25.644Z,1030.7
2017-05-16T08:21:29.296Z,1030.7
2017-05-16T08:22:32.026Z,1030.7
2017-05-16T08:23:34.748Z,1030.6
2017-05-16T08:24:38.095Z,1030.7
2017-05-16T08:25:40.945Z,1030.6
2017-05-16T08:26:44.043Z,1030.6
2017-05-16T08:27:47.253Z,1030.7
2017-05-16T08:28:50.009Z,1030.7
2017-05-16T08:29:52.853Z,1030.7
2017-05-16T08:30:56.194Z,1030.7
2017-05-16T08:31:59.339Z,1030.7
2017-05-16T08:33:02.243Z,1030.6
2017-05-16T08:34:05.455Z,1030.7
2017-05-16T08:35:08.165Z,1030.6
2017-05-16T08:36:11.246Z,1030.7
2017-05-16T08:37:14.852Z,1030.7
2017-05-16T08:38:17.191Z,1030.7
2017-05-16T08:39:20.400Z,1030.7
2017-05-16T08:40:23.750Z,1030.7
2017-05-16T08:41:26.595Z,1030.7
2017-05-16T08:42:29.691Z,1030.7
2017-05-16T08:43:32.600Z,1030.7
2017-05-16T08:44:35.514Z,1030.7
2017-05-16T08:45:38.858Z,1030.6
2017-05-16T08:46:41.574Z,1030.7
2017-05-16T08:47:45.220Z,1030.7
2017-05-16T08:48:48.067Z,1030.7
2017-05-16T08:50:53.821Z,1030.7
2017-05-16T08:51:57.166Z,1030.7
2017-05-16T08:53:00.362Z,1030.7
2017-05-16T08:54:03.082Z,1030.7
2017-05-16T08:55:05.934Z,1030.7
2017-05-16T08:56:09.144Z,1030.7
2017-05-16T08:57:12.492Z,1030.7
2017-05-16T08:58:15.451Z,1030.7
2017-05-16T08:59:18.295Z,1030.7
2017-05-16T09:00:21.647Z,1030.7
2017-05-16T09:01:24.545Z,1030.7
2017-05-16T09:02:27.386Z,1030.6
2017-05-16T09:03:30.992Z,1030.6
2017-05-16T09:04:33.839Z,1030.6
2017-05-16T09:05:37.050Z,1030.7
2017-05-16T09:06:39.900Z,1030.6
2017-05-16T09:08:47.060Z,1030.7
2017-05-16T09:09:49.405Z,1030.7
2017-05-16T09:10:52.751Z,1030.7
2017-05-16T09:11:55.596Z,1030.7
2017-05-16T09:12:58.949Z,1030.7
2017-05-16T09:14:02.553Z,1030.6
2017-05-16T09:15:05.396Z,1030.6
2017-05-16T09:16:08.750Z,1030.6
2017-05-16T09:17:11.594Z,1030.6
2017-05-16T09:18:14.943Z,1030.6
2017-05-16T09:19:18.443Z,1030.7
2017-05-16T09:20:21.290Z,1030.7
2017-05-16T09:21:24.635Z,1030.6
2017-05-16T09:22:28.055Z,1030.6
2017-05-16T09:23:31.410Z,1030.7
2017-05-16T09:24:34.560Z,1030.7
2017-05-16T09:25:37.829Z,1030.7
2017-05-16T09:26:40.726Z,1030.7
2017-05-16T09:27:44.076Z,1030.7
2017-05-16T09:28:47.288Z,1030.7
2017-05-16T09:29:50.943Z,1030.7
2017-05-16T09:30:54.291Z,1030.7
2017-05-16T09:31:57.131Z,1030.7
2017-05-16T09:33:00.345Z,1030.7
2017-05-16T09:34:03.693Z,1030.6
2017-05-16T09:35:07.294Z,1030.6
2017-05-16T09:36:10.371Z,1030.6
2017-05-16T09:37:13.720Z,1030.6
2017-05-16T09:38:16.933Z,1030.6
2017-05-16T09:39:20.149Z,1030.5
2017-05-16T09:41:26.767Z,1030.5
2017-05-16T09:42:29.846Z,1030.6
2017-05-16T09:43:33.196Z,1030.5
2017-05-16T09:44:36.041Z,1030.5
2017-05-16T09:46:42.973Z,1030.5
2017-05-16T09:47:45.684Z,1030.5
2017-05-16T09:48:48.898Z,1030.6
2017-05-16T09:49:52.245Z,1030.5
2017-05-16T09:50:55.597Z,1030.5
2017-05-16T09:51:59.714Z,1030.5
2017-05-16T09:53:02.344Z,1030.5
2017-05-16T09:54:05.688Z,1030.6
2017-05-16T09:55:08.763Z,1030.5
2017-05-16T09:56:12.111Z,1030.5
2017-05-16T09:57:15.761Z,1030.5
2017-05-16T09:58:18.610Z,1030.5
2017-05-16T09:59:21.959Z,1030.4
2017-05-16T10:00:25.309Z,1030.5
2017-05-16T10:01:28.661Z,1030.5
2017-05-16T10:02:31.758Z,1030.4
2017-05-16T10:03:34.968Z,1030.5
2017-05-16T10:04:38.317Z,1030.5
2017-05-16T10:05:41.163Z,1030.4
2017-05-16T10:06:44.515Z,1030.4
2017-05-16T10:07:48.113Z,1030.4
2017-05-16T10:08:50.968Z,1030.4
2017-05-16T10:09:54.185Z,1030.4
2017-05-16T10:10:57.400Z,1030.4
2017-05-16T10:12:00.744Z,1030.4
2017-05-16T10:13:03.845Z,1030.4
2017-05-16T10:14:07.059Z,1030.4
2017-05-16T10:15:10.135Z,1030.3
2017-05-16T10:16:13.343Z,1030.3
2017-05-16T10:17:16.555Z,1030.3
2017-05-16T10:18:19.657Z,1030.3
2017-05-16T10:19:22.500Z,1030.4
2017-05-16T10:20:25.860Z,1030.4
2017-05-16T10:21:28.707Z,1030.4
2017-05-16T10:22:32.052Z,1030.4
2017-05-16T10:23:35.222Z,1030.3
2017-05-16T10:24:38.069Z,1030.4
2017-05-16T10:25:41.415Z,1030.3
2017-05-16T10:26:44.260Z,1030.4
2017-05-16T10:27:47.666Z,1030.4
2017-05-16T10:28:50.626Z,1030.3
2017-05-16T10:29:53.474Z,1030.4
2017-05-16T10:30:56.687Z,1030.3
2017-05-16T10:31:59.531Z,1030.4
2017-05-16T10:33:02.880Z,1030.3
2017-05-16T10:34:06.026Z,1030.3
2017-05-16T10:35:08.738Z,1030.4
2017-05-16T10:36:12.089Z,1030.3
2017-05-16T10:37:14.799Z,1030.4
2017-05-16T10:38:18.149Z,1030.4
2017-05-16T10:39:21.297Z,1030.4
2017-05-16T10:40:24.152Z,1030.4
2017-05-16T10:41:27.234Z,1030.4
2017-05-16T10:42:30.079Z,1030.4
2017-05-16T10:43:33.293Z,1030.4
2017-05-16T10:44:36.863Z,1030.3
2017-05-16T10:45:39.201Z,1030.3
2017-05-16T10:46:42.623Z,1030.4
2017-05-16T10:47:45.368Z,1030.4
2017-05-16T10:48:48.213Z,1030.4
2017-05-16T10:49:51.821Z,1030.3
2017-05-16T10:50:54.275Z,1030.3
2017-05-16T10:51:57.619Z,1030.3
2017-05-16T10:53:00.462Z,1030.3
2017-05-16T10:54:03.368Z,1030.3
2017-05-16T10:55:07.018Z,1030.4
2017-05-16T10:56:09.864Z,1030.4
2017-05-16T10:57:12.445Z,1030.3
2017-05-16T10:58:15.793Z,1030.3
2017-05-16T10:59:18.647Z,1030.3
2017-05-16T11:00:22.161Z,1030.2
2017-05-16T11:01:24.737Z,1030.2
2017-05-16T11:02:27.579Z,1030.2
2017-05-16T11:03:30.927Z,1030.2
2017-05-16T11:04:33.772Z,1030.2
2017-05-16T11:05:36.971Z,1030.2
2017-05-16T11:06:39.685Z,1030.2
2017-05-16T11:07:42.898Z,1030.2
2017-05-16T11:08:45.742Z,1030.1
2017-05-16T11:09:49.088Z,1030.2
2017-05-16T11:10:52.099Z,1030.2
2017-05-16T11:11:54.804Z,1030.2
2017-05-16T11:12:58.156Z,1030.2
2017-05-16T11:14:00.935Z,1030.1
2017-05-16T11:15:03.777Z,1030.1
2017-05-16T11:16:07.075Z,1030.1
2017-05-16T11:17:10.152Z,1030.1
2017-05-16T11:18:12.994Z,1030.1
2017-05-16T11:19:15.840Z,1030.1
2017-05-16T11:20:19.189Z,1030.1
2017-05-16T11:21:22.390Z,1030
2017-05-16T11:22:24.784Z,1030
2017-05-16T11:23:28.133Z,1030
2017-05-16T11:24:30.978Z,1030
2017-05-16T11:25:33.823Z,1030
2017-05-16T11:26:37.525Z,1030
2017-05-16T11:27:39.862Z,1030
2017-05-16T11:28:43.123Z,1030.1
2017-05-16T11:29:45.834Z,1030
2017-05-16T11:30:49.293Z,1030.1
2017-05-16T11:31:52.447Z,1030.1
2017-05-16T11:32:55.290Z,1030.1
2017-05-16T11:33:58.137Z,1030
2017-05-16T11:35:00.990Z,1030
2017-05-16T11:36:04.342Z,1030
2017-05-16T11:37:07.559Z,1030
2017-05-16T11:39:13.179Z,1030
2017-05-16T11:40:15.892Z,1029.9
2017-05-16T11:41:19.244Z,1030
2017-05-16T11:42:22.392Z,1030
2017-05-16T11:43:25.145Z,1030
2017-05-16T11:44:27.991Z,1029.9
2017-05-16T11:45:31.336Z,1029.8
2017-05-16T11:46:34.176Z,1029.8
2017-05-16T11:47:37.693Z,1029.9
2017-05-16T11:48:40.042Z,1029.9
2017-05-16T11:49:43.392Z,1029.8
2017-05-16T11:51:49.030Z,1029.8
2017-05-16T11:52:52.682Z,1029.9
2017-05-16T11:53:55.027Z,1029.8
2017-05-16T11:54:57.943Z,1029.8
2017-05-16T11:56:01.299Z,1029.9
2017-05-16T11:57:04.161Z,1029.8
2017-05-16T11:58:07.314Z,1029.8
2017-05-16T11:59:10.026Z,1029.8
2017-05-16T12:00:13.384Z,1029.8
2017-05-16T12:01:16.225Z,1029.8
2017-05-16T12:02:19.067Z,1029.8
2017-05-16T12:03:22.535Z,1029.8
2017-05-16T12:04:25.379Z,1029.8
2017-05-16T12:05:28.098Z,1029.8
2017-05-16T12:06:31.312Z,1029.8
2017-05-16T12:08:37.378Z,1029.8
2017-05-16T12:09:40.223Z,1029.8
2017-05-16T12:10:43.440Z,1029.8
2017-05-16T12:11:46.286Z,1029.8
2017-05-16T12:12:49.130Z,1029.8
2017-05-16T12:13:52.741Z,1029.8
2017-05-16T12:14:55.083Z,1029.8
2017-05-16T12:17:01.336Z,1029.7
2017-05-16T12:18:04.182Z,1029.8
2017-05-16T12:19:07.704Z,1029.8
2017-05-16T12:20:10.106Z,1029.7
2017-05-16T12:21:13.452Z,1029.7
2017-05-16T12:22:16.298Z,1029.8
2017-05-16T12:23:19.146Z,1029.8
2017-05-16T12:24:22.793Z,1029.6
2017-05-16T12:25:25.128Z,1029.8
2017-05-16T12:26:28.034Z,1029.7
2017-05-16T12:27:31.431Z,1029.7
2017-05-16T12:28:34.272Z,1029.7
2017-05-16T12:29:37.802Z,1029.7
2017-05-16T12:30:40.145Z,1029.6
2017-05-16T12:31:43.358Z,1029.7
2017-05-16T12:32:46.203Z,1029.6
2017-05-16T12:33:49.044Z,1029.7
2017-05-16T12:34:52.555Z,1029.6
2017-05-16T12:35:55.395Z,1029.6
2017-05-16T12:36:58.237Z,1029.6
2017-05-16T12:38:01.454Z,1029.6
2017-05-16T12:39:04.300Z,1029.7
2017-05-16T12:40:07.455Z,1029.6
2017-05-16T12:41:10.165Z,1029.6
2017-05-16T12:42:13.010Z,1029.6
2017-05-16T12:43:16.359Z,1029.6
2017-05-16T12:44:19.200Z,1029.6
2017-05-16T12:45:22.294Z,1029.6
2017-05-16T12:46:25.005Z,1029.6
2017-05-16T12:47:28.394Z,1029.6
2017-05-16T12:48:31.236Z,1029.6
2017-05-16T12:49:34.082Z,1029.6
2017-05-16T12:50:37.597Z,1029.6
2017-05-16T12:51:40.440Z,1029.6
2017-05-16T12:52:43.149Z,1029.6
2017-05-16T12:53:46.050Z,1029.6
2017-05-16T12:54:49.399Z,1029.6
2017-05-16T12:55:52.498Z,1029.6
2017-05-16T12:56:55.345Z,1029.5
2017-05-16T12:57:58.191Z,1029.6
2017-05-16T12:59:01.401Z,1029.5
2017-05-16T13:00:04.243Z,1029.6
2017-05-16T13:01:07.342Z,1029.5
2017-05-16T13:02:10.056Z,1029.5
2017-05-16T13:03:13.413Z,1029.5
2017-05-16T13:04:16.258Z,1029.5
2017-05-16T13:05:19.107Z,1029.5
2017-05-16T13:06:22.754Z,1029.5
2017-05-16T13:07:25.100Z,1029.4
2017-05-16T13:08:28.311Z,1029.5
2017-05-16T13:09:31.161Z,1029.4
2017-05-16T13:10:34.511Z,1029.4
2017-05-16T13:11:37.660Z,1029.4
2017-05-16T13:12:40.502Z,1029.4
2017-05-16T13:13:43.218Z,1029.5
2017-05-16T13:14:46.431Z,1029.4
2017-05-16T13:15:49.276Z,1029.4
2017-05-16T13:16:52.876Z,1029.4
2017-05-16T13:17:55.221Z,1029.4
2017-05-16T13:18:58.574Z,1029.4
2017-05-16T13:20:01.418Z,1029.4
2017-05-16T13:21:04.264Z,1029.4
2017-05-16T13:22:07.914Z,1029.4
2017-05-16T13:23:10.357Z,1029.3
2017-05-16T13:24:13.701Z,1029.3
2017-05-16T13:25:16.546Z,1029.3
2017-05-16T13:26:19.391Z,1029.3
2017-05-16T13:27:22.982Z,1029.3
2017-05-16T13:28:25.320Z,1029.3
2017-05-16T13:29:28.667Z,1029.3
2017-05-16T13:30:31.510Z,1029.3
2017-05-16T13:31:34.725Z,1029.3
2017-05-16T13:32:37.826Z,1029.2
2017-05-16T13:33:40.672Z,1029.2